Time;durP1;ratioP1;P1;durP2;ratioP2;P2;SDS_P1;SDS_P2;PMS_P1;PMS_P2;Temp;Humidity;BMP_temperature;BMP_pressure;BME280_temperature;BME280_humidity;BME280_pressure;Samples;Min_cycle;Max_cycle;Signal;HPM_P1;HPM_P2
2022/05/06 00:02:09;;;;;;;9.03;7.37;;;8.40;1.00;;;;;;5079889;28;20810;-60
2022/05/06 00:04:36;;;;;;;7.77;7.00;;;8.30;1.00;;;;;;5078937;28;20488;-60
2022/05/06 00:07:05;;;;;;;8.70;7.40;;;8.30;1.00;;;;;;5079256;28;20755;-60
2022/05/06 00:09:45;;;;;;;7.60;6.43;;;8.30;1.00;;;;;;5079471;28;20461;-60
2022/05/06 00:12:18;;;;;;;8.30;7.27;;;8.20;1.00;;;;;;5079990;28;20742;-60
2022/05/06 00:14:50;;;;;;;8.30;7.20;;;8.20;1.00;;;;;;5079539;28;20465;-60
2022/05/06 00:17:18;;;;;;;8.93;7.17;;;8.10;1.00;;;;;;5078841;28;20485;-59
2022/05/06 00:19:48;;;;;;;8.60;7.30;;;8.10;1.00;;;;;;5079225;28;20536;-60
2022/05/06 00:22:15;;;;;;;7.70;6.93;;;8.10;1.00;;;;;;5079572;28;20826;-60
2022/05/06 00:24:47;;;;;;;8.60;7.70;;;8.00;1.00;;;;;;5079494;28;20465;-60
2022/05/06 00:27:14;;;;;;;7.70;6.90;;;7.90;1.00;;;;;;5078575;28;20460;-60
2022/05/06 00:29:50;;;;;;;12.23;7.40;;;7.90;1.00;;;;;;5078969;28;20881;-60
2022/05/06 00:32:20;;;;;;;9.80;8.13;;;7.90;1.00;;;;;;5078862;28;20471;-60
2022/05/06 00:34:47;;;;;;;10.07;7.00;;;7.80;1.00;;;;;;5079467;28;20763;-59
2022/05/06 00:37:14;;;;;;;8.67;7.57;;;7.90;1.00;;;;;;5079181;28;20529;-60
2022/05/06 00:39:43;;;;;;;12.53;7.97;;;7.80;1.00;;;;;;5078248;28;20534;-60
2022/05/06 00:42:12;;;;;;;11.03;7.80;;;7.80;1.00;;;;;;5078900;28;20955;-59
2022/05/06 00:44:39;;;;;;;8.80;7.90;;;7.80;1.00;;;;;;5078938;28;20466;-60
2022/05/06 00:47:06;;;;;;;8.70;7.80;;;7.80;1.00;;;;;;5079336;28;20874;-60
2022/05/06 00:49:35;;;;;;;10.27;8.17;;;7.70;1.00;;;;;;5078211;28;20489;-59
2022/05/06 00:52:10;;;;;;;8.30;7.40;;;7.70;1.00;;;;;;5078885;28;20508;-60
2022/05/06 00:54:51;;;;;;;11.17;8.93;;;7.70;1.00;;;;;;5059186;28;20489;-60
2022/05/06 00:57:23;;;;;;;12.13;8.13;;;7.70;1.00;;;;;;5059191;28;20500;-60
2022/05/06 01:02:35;;;;;;;9.70;8.27;;;7.70;1.00;;;;;;5078357;28;20748;-59
2022/05/06 01:05:02;;;;;;;9.40;7.57;;;7.70;1.00;;;;;;5078859;28;20518;-60
2022/05/06 01:07:34;;;;;;;8.20;7.40;;;7.70;1.00;;;;;;5079152;28;20514;-59
2022/05/06 01:10:16;;;;;;;9.47;7.87;;;7.60;1.00;;;;;;5077433;28;20544;-60
2022/05/06 01:12:47;;;;;;;9.17;8.20;;;7.60;1.00;;;;;;5076327;28;20476;-59
2022/05/06 01:15:23;;;;;;;9.30;8.30;;;7.60;1.00;;;;;;5077599;28;20457;-59
2022/05/06 01:17:55;;;;;;;8.43;7.60;;;7.60;1.00;;;;;;5077994;28;21000;-60
2022/05/06 01:20:24;;;;;;;10.87;8.57;;;7.60;1.00;;;;;;5077428;28;20901;-60
2022/05/06 01:22:58;;;;;;;9.67;7.83;;;7.40;1.00;;;;;;5078527;28;20819;-60
2022/05/06 01:25:28;;;;;;;9.33;8.23;;;7.40;1.00;;;;;;5078180;28;20461;-60
2022/05/06 01:27:57;;;;;;;11.80;7.47;;;7.40;1.00;;;;;;5077802;28;20485;-60
2022/05/06 01:30:31;;;;;;;11.67;8.10;;;7.40;1.00;;;;;;5077406;28;20497;-60
2022/05/06 01:33:04;;;;;;;9.77;7.57;;;7.30;1.00;;;;;;5078724;28;20523;-60
2022/05/06 01:35:39;;;;;;;9.40;7.63;;;7.20;1.00;;;;;;5078125;28;20542;-60
2022/05/06 01:38:09;;;;;;;8.13;7.30;;;7.20;1.00;;;;;;5077482;28;20930;-60
2022/05/06 01:40:40;;;;;;;8.40;7.37;;;7.20;1.00;;;;;;5077128;28;20490;-59
2022/05/06 01:43:14;;;;;;;10.40;7.87;;;7.20;1.00;;;;;;5078252;28;20847;-60
2022/05/06 01:45:43;;;;;;;9.30;8.03;;;7.10;1.00;;;;;;5077335;28;20464;-60
2022/05/06 01:48:12;;;;;;;9.60;8.43;;;7.10;1.00;;;;;;5078189;28;20465;-60
2022/05/06 01:50:54;;;;;;;9.07;8.17;;;7.10;1.00;;;;;;5074020;28;20546;-60
2022/05/06 01:53:25;;;;;;;12.07;8.30;;;7.00;1.00;;;;;;5057137;28;20895;-60
2022/05/06 01:55:55;;;;;;;10.47;7.40;;;7.00;1.00;;;;;;5068736;28;20587;-60
2022/05/06 01:58:22;;;;;;;10.40;8.33;;;6.90;1.00;;;;;;5077067;28;20461;-60
2022/05/06 02:00:52;;;;;;;9.50;8.50;;;6.90;1.00;;;;;;5076816;28;20458;-60
2022/05/06 02:06:05;;;;;;;9.00;8.10;;;6.90;1.00;;;;;;5076654;28;20441;-59
2022/05/06 02:08:36;;;;;;;10.10;8.20;;;6.90;1.00;;;;;;5077596;28;20825;-60
2022/05/06 02:11:05;;;;;;;9.37;7.67;;;6.90;1.00;;;;;;5077434;28;20472;-60
2022/05/06 02:13:42;;;;;;;8.30;7.50;;;6.80;1.00;;;;;;5076932;28;20523;-60
2022/05/06 02:16:16;;;;;;;13.63;7.60;;;6.70;1.00;;;;;;5076629;28;20495;-60
2022/05/06 02:18:45;;;;;;;10.97;7.83;;;6.70;1.00;;;;;;5077394;28;20465;-60
2022/05/06 02:21:16;;;;;;;8.93;7.90;;;6.80;1.00;;;;;;5075811;28;20461;-60
2022/05/06 02:23:45;;;;;;;9.50;8.50;;;6.70;1.00;;;;;;5076364;28;20476;-60
2022/05/06 02:26:12;;;;;;;19.73;8.70;;;6.70;1.00;;;;;;5077123;28;20562;-60
2022/05/06 02:28:42;;;;;;;8.97;8.10;;;6.70;1.00;;;;;;5076231;28;20465;-60
2022/05/06 02:33:56;;;;;;;8.10;7.30;;;6.60;1.00;;;;;;5076316;28;20456;-60
2022/05/06 02:36:26;;;;;;;10.37;8.50;;;6.60;1.00;;;;;;5077090;28;20496;-60
2022/05/06 02:38:56;;;;;;;9.67;8.20;;;6.50;1.00;;;;;;5077542;28;20868;-60
2022/05/06 02:41:25;;;;;;;9.73;7.70;;;6.50;1.00;;;;;;5077565;28;20462;-60
2022/05/06 02:43:55;;;;;;;9.90;7.97;;;6.40;1.00;;;;;;5076672;28;20939;-60
2022/05/06 02:46:22;;;;;;;11.77;7.70;;;6.40;1.00;;;;;;5076582;28;20458;-60
2022/05/06 02:48:49;;;;;;;10.43;8.17;;;6.40;1.00;;;;;;5075019;28;20515;-60
2022/05/06 02:51:17;;;;;;;10.23;7.60;;;6.40;1.00;;;;;;5077097;28;20889;-60
2022/05/06 02:53:48;;;;;;;9.83;7.90;;;6.40;1.00;;;;;;5076281;28;20835;-60
2022/05/06 02:56:17;;;;;;;8.77;7.87;;;6.40;1.00;;;;;;5076769;28;20541;-60
2022/05/06 02:58:46;;;;;;;10.00;9.00;;;6.30;1.00;;;;;;5077065;28;20488;-60
2022/05/06 03:01:15;;;;;;;11.40;8.80;;;6.30;1.00;;;;;;5077267;28;20460;-60
2022/05/06 03:03:45;;;;;;;8.87;7.97;;;6.30;1.00;;;;;;5076099;28;20489;-60
2022/05/06 03:06:15;;;;;;;9.10;7.47;;;6.30;1.00;;;;;;5076858;28;20462;-59
2022/05/06 03:08:42;;;;;;;9.47;8.47;;;6.20;1.00;;;;;;5076885;28;20461;-59
2022/05/06 03:11:09;;;;;;;11.00;8.00;;;6.20;1.00;;;;;;5076979;28;20462;-59
2022/05/06 03:13:41;;;;;;;8.60;7.70;;;6.20;1.00;;;;;;5076325;28;20461;-59
2022/05/06 03:16:13;;;;;;;12.07;7.90;;;6.20;1.00;;;;;;5076099;28;20550;-59
2022/05/06 03:18:40;;;;;;;11.10;8.60;;;6.10;1.00;;;;;;5076143;28;20467;-59
2022/05/06 03:21:09;;;;;;;11.10;9.40;;;6.00;1.00;;;;;;5076705;28;20461;-59
2022/05/06 03:23:38;;;;;;;9.97;8.30;;;6.00;1.00;;;;;;5076283;28;20461;-59
2022/05/06 03:26:06;;;;;;;11.53;8.30;;;6.00;1.00;;;;;;5075859;28;20579;-59
2022/05/06 03:28:36;;;;;;;9.53;7.90;;;6.00;1.00;;;;;;5076586;28;20465;-60
2022/05/06 03:31:06;;;;;;;10.53;8.00;;;6.00;1.00;;;;;;5076347;28;20505;-59
2022/05/06 03:33:37;;;;;;;11.97;8.90;;;6.00;1.00;;;;;;5075785;28;20532;-60
2022/05/06 03:36:09;;;;;;;9.77;8.80;;;6.00;1.00;;;;;;5075836;28;20461;-60
2022/05/06 03:38:36;;;;;;;10.10;8.00;;;6.00;1.00;;;;;;5076525;28;20522;-59
2022/05/06 03:41:06;;;;;;;11.10;9.07;;;5.90;1.00;;;;;;5078906;28;20792;-59
2022/05/06 03:43:36;;;;;;;11.23;9.00;;;5.80;1.00;;;;;;5080066;28;20468;-59
2022/05/06 03:46:05;;;;;;;10.70;8.60;;;5.90;7.40;;;;;;5079336;28;20508;-59
2022/05/06 03:48:32;;;;;;;9.33;8.13;;;5.90;12.30;;;;;;5080288;28;20503;-60
2022/05/06 03:53:51;;;;;;;10.50;9.50;;;5.90;1.00;;;;;;5079621;28;20525;-59
2022/05/06 03:56:22;;;;;;;9.10;8.03;;;5.90;1.00;;;;;;5079277;28;20489;-58
2022/05/06 03:58:50;;;;;;;12.80;9.87;;;5.90;1.00;;;;;;5080334;28;20505;-59
2022/05/06 04:01:19;;;;;;;10.57;8.83;;;5.90;1.00;;;;;;5079929;28;20767;-59
2022/05/06 04:03:47;;;;;;;10.77;8.63;;;5.90;1.00;;;;;;5079582;28;20466;-59
2022/05/06 04:06:17;;;;;;;9.87;7.60;;;5.90;1.00;;;;;;5079303;28;20939;-59
2022/05/06 04:08:44;;;;;;;10.50;9.40;;;5.90;1.00;;;;;;5059820;28;20460;-59
2022/05/06 04:11:12;;;;;;;9.43;8.20;;;5.90;1.00;;;;;;5064189;28;20524;-59
2022/05/06 04:13:41;;;;;;;11.17;9.43;;;5.90;1.00;;;;;;5079660;28;20472;-60
2022/05/06 04:16:08;;;;;;;10.70;9.33;;;5.90;1.00;;;;;;5079119;28;20493;-59
2022/05/06 04:18:37;;;;;;;10.63;9.43;;;5.90;1.00;;;;;;5079002;28;20779;-60
2022/05/06 04:23:54;;;;;;;10.70;7.90;;;5.90;1.00;;;;;;5059054;28;20436;-59
2022/05/06 04:26:21;;;;;;;10.57;9.27;;;5.90;1.00;;;;;;5059494;28;20458;-59
2022/05/06 04:28:50;;;;;;;11.40;10.23;;;5.90;1.00;;;;;;5071725;28;20464;-60
2022/05/06 04:31:21;;;;;;;14.23;9.40;;;6.00;1.00;;;;;;5078338;28;20835;-59
2022/05/06 04:33:50;;;;;;;12.10;8.60;;;6.00;1.00;;;;;;5079393;28;20944;-59
2022/05/06 04:36:20;;;;;;;11.67;10.30;;;6.00;1.00;;;;;;5078908;28;20538;-57
2022/05/06 04:38:49;;;;;;;14.23;10.37;;;6.10;1.00;;;;;;5078779;28;20465;-59
2022/05/06 04:41:16;;;;;;;10.77;9.43;;;6.10;1.00;;;;;;5074528;28;20484;-60
2022/05/06 04:43:45;;;;;;;12.57;8.73;;;6.10;1.00;;;;;;5071953;28;20609;-60
2022/05/06 04:46:12;;;;;;;10.67;9.03;;;6.10;1.00;;;;;;5077317;28;20523;-59
2022/05/06 04:48:42;;;;;;;14.00;10.40;;;6.10;1.00;;;;;;5077591;28;20956;-56
2022/05/06 04:51:10;;;;;;;13.97;9.83;;;6.10;1.00;;;;;;5076013;28;20974;-60
2022/05/06 04:53:42;;;;;;;12.53;9.20;;;6.10;1.00;;;;;;5075939;28;20442;-59
2022/05/06 04:56:09;;;;;;;11.60;9.00;;;6.20;1.00;;;;;;5076440;28;20470;-60
2022/05/06 04:58:39;;;;;;;11.27;8.80;;;6.30;1.00;;;;;;5076909;28;20465;-58
2022/05/06 05:01:09;;;;;;;16.63;10.07;;;6.40;1.00;;;;;;5056864;28;20465;-59
2022/05/06 05:03:36;;;;;;;12.33;9.30;;;6.50;1.00;;;;;;5071253;28;20793;-60
2022/05/06 05:06:06;;;;;;;10.47;9.37;;;6.60;1.00;;;;;;5077051;28;20496;-59
2022/05/06 05:08:40;;;;;;;13.37;9.30;;;6.60;1.00;;;;;;5077001;28;20449;-60
2022/05/06 05:11:08;;;;;;;13.97;9.97;;;6.60;1.00;;;;;;5077745;28;20518;-60
2022/05/06 05:13:38;;;;;;;12.60;8.67;;;6.70;1.00;;;;;;5076590;28;20457;-60
2022/05/06 05:16:08;;;;;;;10.83;8.10;;;6.80;1.00;;;;;;5077165;28;20489;-60
2022/05/06 05:18:35;;;;;;;11.73;8.70;;;6.90;1.00;;;;;;5077582;28;20547;-60
2022/05/06 05:21:05;;;;;;;12.47;9.60;;;7.00;1.00;;;;;;5076059;28;20551;-60
2022/05/06 05:23:33;;;;;;;10.43;9.27;;;7.00;1.00;;;;;;5076837;28;20511;-60
2022/05/06 05:26:04;;;;;;;11.67;9.50;;;7.10;1.00;;;;;;5076619;28;20465;-60
2022/05/06 05:28:31;;;;;;;9.33;8.20;;;7.30;1.00;;;;;;5076530;28;20432;-60
2022/05/06 05:31:00;;;;;;;11.00;9.47;;;7.30;1.00;;;;;;5076237;28;20457;-59
2022/05/06 05:33:28;;;;;;;11.87;10.67;;;7.40;1.00;;;;;;5076281;28;20469;-60
2022/05/06 05:35:57;;;;;;;12.60;9.60;;;7.60;1.00;;;;;;5076579;28;20453;-59
2022/05/06 05:38:32;;;;;;;12.07;10.03;;;7.70;1.00;;;;;;5074371;28;20513;-60
2022/05/06 05:41:00;;;;;;;17.53;10.17;;;7.80;1.00;;;;;;5075730;28;20468;-60
2022/05/06 05:48:58;;;;;;;13.80;9.10;;;8.30;1.00;;;;;;5075773;28;20484;-60
2022/05/06 05:51:28;;;;;;;13.23;11.10;;;8.40;1.00;;;;;;5076783;28;20905;-60
2022/05/06 05:53:55;;;;;;;12.20;10.83;;;8.60;1.00;;;;;;5075957;28;20506;-60
2022/05/06 05:56:24;;;;;;;17.30;10.60;;;8.80;1.00;;;;;;5075442;28;20458;-60
2022/05/06 05:58:53;;;;;;;15.20;11.23;;;9.00;1.00;;;;;;5076450;28;20845;-61
2022/05/06 06:01:20;;;;;;;11.40;9.73;;;9.30;1.00;;;;;;5075831;28;20822;-59
2022/05/06 06:03:50;;;;;;;18.33;10.87;;;9.60;1.00;;;;;;5073326;28;20508;-59
2022/05/06 06:06:19;;;;;;;14.20;11.37;;;9.90;1.00;;;;;;5075563;28;20457;-58
2022/05/06 06:08:46;;;;;;;19.23;11.63;;;10.10;1.00;;;;;;5075985;28;20469;-59
2022/05/06 06:11:17;;;;;;;11.30;9.93;;;10.40;1.00;;;;;;5076151;28;20453;-59
2022/05/06 06:13:45;;;;;;;16.83;11.03;;;10.70;1.00;;;;;;5074970;28;20721;-59
2022/05/06 06:16:13;;;;;;;14.20;10.97;;;11.00;1.00;;;;;;5076397;28;20852;-60
2022/05/06 06:18:43;;;;;;;13.67;10.80;;;11.30;1.00;;;;;;5076103;28;20504;-58
2022/05/06 06:21:13;;;;;;;11.40;10.30;;;11.60;1.00;;;;;;5076156;28;20489;-59
2022/05/06 06:23:40;;;;;;;12.23;10.40;;;11.90;99.90;;;;;;5076731;28;20492;-59
2022/05/06 06:26:12;;;;;;;15.43;10.50;;;12.10;99.90;;;;;;5076493;28;20493;-59
2022/05/06 06:28:40;;;;;;;10.97;9.70;;;12.40;99.90;;;;;;5076707;28;21020;-59
2022/05/06 06:31:09;;;;;;;15.17;9.23;;;12.50;99.90;;;;;;5077018;28;20523;-60
2022/05/06 06:33:38;;;;;;;11.27;9.37;;;12.50;99.90;;;;;;5076063;28;20518;-61
2022/05/06 06:36:06;;;;;;;11.60;9.00;;;12.50;99.90;;;;;;5060159;28;20476;-61
2022/05/06 06:38:35;;;;;;;10.47;9.37;;;12.60;99.90;;;;;;5075928;28;20488;-61
2022/05/06 06:41:02;;;;;;;9.77;8.70;;;12.90;99.90;;;;;;5076418;28;20550;-61
2022/05/06 06:43:35;;;;;;;10.43;8.07;;;13.40;99.90;;;;;;5076719;28;20878;-61
2022/05/06 06:46:06;;;;;;;11.27;10.13;;;13.70;99.90;;;;;;5076881;28;20894;-61
2022/05/06 06:48:39;;;;;;;12.40;8.87;;;13.90;99.90;;;;;;5076729;28;20515;-61
2022/05/06 06:51:07;;;;;;;9.37;8.20;;;14.10;99.90;;;;;;5077259;28;20465;-60
2022/05/06 06:53:35;;;;;;;9.87;8.87;;;14.40;99.90;;;;;;5075779;28;20545;-60
2022/05/06 06:56:04;;;;;;;9.77;8.77;;;14.70;99.90;;;;;;5076519;28;20818;-60
2022/05/06 06:58:31;;;;;;;12.20;8.70;;;15.00;99.90;;;;;;5076261;28;20470;-60
2022/05/06 07:01:02;;;;;;;15.00;9.20;;;15.40;99.90;;;;;;5077057;28;20462;-60
2022/05/06 07:03:29;;;;;;;9.03;8.23;;;15.80;99.90;;;;;;5067254;28;20469;-60
2022/05/06 07:11:54;;;;;;;10.30;9.20;;;16.40;99.90;;;;;;5076947;28;20432;-60
2022/05/06 07:14:25;;;;;;;10.27;8.83;;;16.80;99.90;;;;;;5076322;28;20780;-61
2022/05/06 07:16:58;;;;;;;8.37;7.67;;;17.20;99.90;;;;;;5079646;28;20485;-60
2022/05/06 07:19:34;;;;;;;9.13;8.23;;;17.40;99.90;;;;;;5080283;28;20469;-60
2022/05/06 07:22:06;;;;;;;11.20;7.80;;;17.60;99.90;;;;;;5079958;28;21023;-61
2022/05/06 07:24:34;;;;;;;12.00;7.03;;;17.60;99.90;;;;;;5079348;28;20534;-61
2022/05/06 07:27:00;;;;;;;8.50;7.60;;;17.40;99.90;;;;;;5079255;28;20897;-60
2022/05/06 07:29:31;;;;;;;8.97;8.00;;;17.90;99.90;;;;;;5079363;28;20461;-60
2022/05/06 07:31:58;;;;;;;8.50;7.80;;;18.30;99.90;;;;;;5079451;28;20457;-61
2022/05/06 07:34:28;;;;;;;10.50;7.70;;;18.70;99.90;;;;;;5078932;28;20522;-61
2022/05/06 07:36:58;;;;;;;9.30;7.83;;;19.30;99.90;;;;;;5079834;28;20471;-59
2022/05/06 07:39:26;;;;;;;10.97;9.10;;;19.50;99.90;;;;;;5080243;28;20461;-59
2022/05/06 07:41:58;;;;;;;13.20;8.87;;;19.60;99.90;;;;;;5080094;28;20509;-59
2022/05/06 07:44:25;;;;;;;11.40;9.90;;;20.00;99.90;;;;;;5078074;28;20551;-59
2022/05/06 07:46:53;;;;;;;13.10;10.93;;;20.00;99.90;;;;;;5077252;28;20543;-59
2022/05/06 07:49:20;;;;;;;10.40;9.40;;;20.20;99.90;;;;;;5077524;28;20497;-58
2022/05/06 07:51:49;;;;;;;14.10;10.90;;;20.40;99.90;;;;;;5077114;28;20515;-59
2022/05/06 07:54:19;;;;;;;14.70;11.03;;;20.80;99.90;;;;;;5079050;28;20820;-59
2022/05/06 07:56:54;;;;;;;13.77;10.77;;;20.30;99.90;;;;;;5077897;28;20457;-59
2022/05/06 07:59:23;;;;;;;12.87;11.17;;;20.60;99.90;;;;;;5079287;28;20488;-59
2022/05/06 08:04:47;;;;;;;13.83;12.07;;;20.90;99.90;;;;;;5077256;28;20904;-59
2022/05/06 08:07:18;;;;;;;12.87;10.67;;;21.10;99.90;;;;;;5074877;28;20543;-59
2022/05/06 08:09:53;;;;;;;12.73;10.33;;;21.60;99.90;;;;;;5078236;28;20548;-58
2022/05/06 08:12:21;;;;;;;11.23;10.13;;;21.10;99.90;;;;;;5079187;28;20773;-58
2022/05/06 08:14:48;;;;;;;11.50;10.30;;;21.30;99.90;;;;;;5079829;28;20467;-59
2022/05/06 08:17:19;;;;;;;13.07;9.73;;;21.40;99.90;;;;;;5077956;28;20866;-59
2022/05/06 08:19:52;;;;;;;13.23;11.17;;;21.40;99.90;;;;;;5079084;28;20457;-61
2022/05/06 08:22:19;;;;;;;12.93;9.20;;;21.20;99.90;;;;;;5078585;28;20487;-60
2022/05/06 08:24:58;;;;;;;12.30;10.30;;;21.90;99.90;;;;;;5079548;28;20555;-59
2022/05/06 08:27:30;;;;;;;12.10;10.90;;;22.40;99.90;;;;;;5077288;28;20484;-60
2022/05/06 08:29:57;;;;;;;12.07;10.97;;;22.80;99.90;;;;;;5077732;28;20465;-60
2022/05/06 08:32:23;;;;;;;11.97;10.67;;;22.60;99.90;;;;;;5078377;28;20590;-59
2022/05/06 08:34:54;;;;;;;9.90;9.10;;;22.80;99.90;;;;;;5077293;28;20484;-60
2022/05/06 08:37:30;;;;;;;11.60;10.40;;;23.00;99.90;;;;;;5058455;28;20514;-60
2022/05/06 08:40:02;;;;;;;11.90;10.17;;;23.40;99.90;;;;;;5058914;28;20473;-62
2022/05/06 08:42:34;;;;;;;14.43;12.80;;;23.60;99.90;;;;;;5065846;28;20889;-62
2022/05/06 08:53:16;;;;;;;12.30;11.10;;;22.80;99.90;;;;;;5078878;28;20830;-62
2022/05/06 08:55:51;;;;;;;12.57;11.43;;;23.80;99.90;;;;;;5077311;28;20955;-60
2022/05/06 08:58:23;;;;;;;12.13;10.80;;;22.90;99.90;;;;;;5078488;28;20500;-59
2022/05/06 09:00:50;;;;;;;11.90;10.70;;;23.10;99.90;;;;;;5078732;28;20466;-60
2022/05/06 09:03:20;;;;;;;11.83;10.70;;;22.70;99.90;;;;;;5076689;28;20801;-61
2022/05/06 09:05:52;;;;;;;16.83;11.47;;;21.60;99.90;;;;;;5078304;28;20458;-61
2022/05/06 09:08:19;;;;;;;13.77;12.50;;;20.30;99.90;;;;;;5078735;28;20457;-61
2022/05/06 09:11:00;;;;;;;13.30;12.10;;;20.60;99.90;;;;;;5078009;28;20465;-61
2022/05/06 09:13:39;;;;;;;11.60;10.57;;;21.10;99.90;;;;;;5076252;28;21461;-61
2022/05/06 09:16:42;;;;;;;12.83;11.50;;;21.60;99.90;;;;;;5057728;28;20976;-61
2022/05/06 09:19:19;;;;;;;12.83;11.40;;;22.20;99.90;;;;;;5073318;28;20488;-61
2022/05/06 09:22:04;;;;;;;11.57;10.13;;;22.00;99.90;;;;;;5068241;28;20453;-62
2022/05/06 09:24:31;;;;;;;11.60;10.40;;;22.00;99.90;;;;;;5077027;28;20515;-62
2022/05/06 09:27:00;;;;;;;12.40;11.13;;;21.90;99.90;;;;;;5077696;28;20885;-62
2022/05/06 09:29:41;;;;;;;13.03;10.63;;;21.80;99.90;;;;;;5077728;28;20834;-61
2022/05/06 09:32:17;;;;;;;11.57;10.43;;;21.60;99.90;;;;;;5060705;28;20477;-62
2022/05/06 09:34:46;;;;;;;14.33;11.63;;;21.80;99.90;;;;;;5076762;28;20464;-61
2022/05/06 09:37:28;;;;;;;12.73;11.37;;;21.90;99.90;;;;;;5077594;28;20688;-60
2022/05/06 09:40:08;;;;;;;13.37;12.07;;;21.80;99.90;;;;;;5075760;28;20530;-60
2022/05/06 09:42:37;;;;;;;11.90;9.90;;;21.60;99.90;;;;;;5068595;28;20531;-62
2022/05/06 09:45:16;;;;;;;10.67;9.77;;;22.70;99.90;;;;;;5073505;28;20495;-61
2022/05/06 09:47:45;;;;;;;11.00;10.10;;;22.80;99.90;;;;;;5071616;28;20476;-61
2022/05/06 09:50:23;;;;;;;9.93;9.10;;;23.30;99.90;;;;;;5073610;28;20420;-61
2022/05/06 09:53:04;;;;;;;9.23;8.43;;;22.30;99.90;;;;;;5074046;28;20469;-61
2022/05/06 09:55:39;;;;;;;11.67;9.20;;;23.70;99.90;;;;;;5069567;28;20473;-61
2022/05/06 09:58:08;;;;;;;10.63;9.53;;;24.90;99.90;;;;;;5073009;28;20587;-61
2022/05/06 10:00:41;;;;;;;12.27;11.03;;;25.20;99.90;;;;;;5070273;28;20905;-61
2022/05/06 10:03:13;;;;;;;10.90;9.90;;;24.90;99.90;;;;;;5071937;28;20469;-61
2022/05/06 10:05:45;;;;;;;12.40;10.90;;;24.20;99.90;;;;;;5076892;28;20527;-61
2022/05/06 10:08:16;;;;;;;11.00;9.97;;;24.40;99.90;;;;;;5077749;28;20823;-61
2022/05/06 10:10:48;;;;;;;11.67;9.87;;;23.50;99.90;;;;;;5075990;28;20465;-61
2022/05/06 10:13:22;;;;;;;11.97;10.77;;;22.90;99.90;;;;;;5076947;28;20462;-61
2022/05/06 10:15:52;;;;;;;10.87;9.40;;;22.70;99.90;;;;;;5075020;28;20478;-61
2022/05/06 10:18:35;;;;;;;10.07;8.93;;;23.20;99.90;;;;;;5076410;28;20570;-61
2022/05/06 10:21:03;;;;;;;10.00;9.10;;;24.70;99.90;;;;;;5074676;28;20534;-61
2022/05/06 10:23:53;;;;;;;10.67;9.60;;;25.50;99.90;;;;;;5075553;28;20470;-61
2022/05/06 10:26:45;;;;;;;12.63;11.07;;;26.40;99.90;;;;;;5075881;28;20956;-59
2022/05/06 10:32:58;;;;;;;7.60;6.90;;;26.20;99.90;;;;;;5074881;28;20746;-58
2022/05/06 10:35:40;;;;;;;10.47;8.47;;;25.50;99.90;;;;;;5059446;28;20905;-58
2022/05/06 10:38:31;;;;;;;8.33;7.63;;;23.00;99.90;;;;;;5066813;28;20912;-59
2022/05/06 10:41:11;;;;;;;9.30;8.40;;;22.00;99.90;;;;;;5056224;28;20473;-58
2022/05/06 10:43:53;;;;;;;9.80;8.40;;;21.60;99.90;;;;;;5075333;28;20461;-57
2022/05/06 10:46:39;;;;;;;10.13;9.23;;;21.50;99.90;;;;;;5075531;28;20796;-59
2022/05/06 10:49:51;;;;;;;13.47;12.10;;;22.60;99.90;;;;;;5070586;28;20562;-59
2022/05/06 10:52:44;;;;;;;12.87;11.67;;;24.20;99.90;;;;;;5054320;28;20461;-59
2022/05/06 10:55:16;;;;;;;10.57;9.50;;;24.50;99.90;;;;;;5076002;28;20492;-59
2022/05/06 10:57:49;;;;;;;12.77;10.17;;;24.00;99.90;;;;;;5076256;28;20461;-59
2022/05/06 11:00:22;;;;;;;8.80;8.00;;;22.20;99.90;;;;;;5077171;28;20457;-59
2022/05/06 11:02:49;;;;;;;14.03;9.03;;;21.50;99.90;;;;;;5075388;28;20462;-59
2022/05/06 11:05:17;;;;;;;9.47;8.67;;;21.00;99.90;;;;;;5076202;28;20848;-59
2022/05/06 11:07:49;;;;;;;9.93;8.93;;;20.70;99.90;;;;;;5073999;28;20473;-59
2022/05/06 11:10:17;;;;;;;11.00;10.00;;;21.00;99.90;;;;;;5075650;28;20493;-59
2022/05/06 11:12:46;;;;;;;13.70;12.50;;;21.40;99.90;;;;;;5076343;28;20953;-59
2022/05/06 11:15:21;;;;;;;11.17;9.97;;;22.20;99.90;;;;;;5076617;28;20540;-58
2022/05/06 11:17:49;;;;;;;9.57;8.67;;;23.10;99.90;;;;;;5076318;28;20512;-59
2022/05/06 11:20:23;;;;;;;10.37;9.40;;;23.40;99.90;;;;;;5075431;28;21002;-60
2022/05/06 11:22:57;;;;;;;11.00;10.00;;;23.80;99.90;;;;;;5075302;28;20882;-60
2022/05/06 11:25:31;;;;;;;11.97;10.77;;;24.20;99.90;;;;;;5069024;28;20461;-59
2022/05/06 11:28:01;;;;;;;12.80;11.50;;;23.70;99.90;;;;;;5074718;28;20777;-59
2022/05/06 11:30:30;;;;;;;12.67;11.47;;;22.90;99.90;;;;;;5061797;28;20581;-60
2022/05/06 11:32:58;;;;;;;13.40;12.17;;;22.80;99.90;;;;;;5055143;28;20560;-60
2022/05/06 11:35:36;;;;;;;13.53;12.17;;;23.10;99.90;;;;;;5067969;28;20571;-59
2022/05/06 11:38:05;;;;;;;13.83;12.43;;;22.30;99.90;;;;;;5062386;28;20469;-58
2022/05/06 11:40:34;;;;;;;12.60;11.30;;;22.30;99.90;;;;;;5062783;28;20511;-59
2022/05/06 11:43:05;;;;;;;11.97;10.87;;;22.50;99.90;;;;;;5074951;28;20507;-59
2022/05/06 11:48:24;;;;;;;12.70;11.60;;;22.30;99.90;;;;;;5073783;28;20440;-59
2022/05/06 11:50:56;;;;;;;12.07;10.97;;;21.60;99.90;;;;;;5074198;28;20465;-59
2022/05/06 11:53:28;;;;;;;14.47;13.17;;;21.90;99.90;;;;;;5074391;28;20556;-60
2022/05/06 11:55:57;;;;;;;14.57;13.27;;;22.20;99.90;;;;;;5074085;28;20495;-60
2022/05/06 11:58:26;;;;;;;14.50;13.10;;;23.30;99.90;;;;;;5073019;28;20983;-59
2022/05/06 12:00:58;;;;;;;14.10;12.80;;;23.50;99.90;;;;;;5074440;28;20468;-59
2022/05/06 12:03:29;;;;;;;13.50;12.30;;;24.00;99.90;;;;;;5079105;28;20460;-60
2022/05/06 12:06:05;;;;;;;13.63;12.47;;;24.70;99.90;;;;;;5076966;28;20971;-60
2022/05/06 12:08:43;;;;;;;15.00;13.20;;;25.50;99.90;;;;;;5077450;28;20495;-60
2022/05/06 12:11:14;;;;;;;13.47;12.07;;;26.10;99.90;;;;;;5071646;28;20465;-60
2022/05/06 12:13:45;;;;;;;14.23;11.60;;;26.30;99.90;;;;;;5076091;28;20515;-61
2022/05/06 12:16:14;;;;;;;13.27;11.17;;;26.80;99.90;;;;;;5074870;28;20583;-61
2022/05/06 12:19:00;;;;;;;11.70;10.70;;;27.30;99.90;;;;;;5076774;28;20466;-60
2022/05/06 12:21:31;;;;;;;12.10;11.10;;;26.90;99.90;;;;;;5078693;28;20449;-60
2022/05/06 12:24:17;;;;;;;11.40;10.20;;;25.80;99.90;;;;;;5078835;28;20461;-60
2022/05/06 12:26:57;;;;;;;11.83;10.73;;;25.50;99.90;;;;;;5076744;28;20906;-59
2022/05/06 12:29:28;;;;;;;12.83;11.10;;;24.70;99.90;;;;;;5076805;28;21003;-60
2022/05/06 12:32:05;;;;;;;12.30;11.33;;;23.70;99.90;;;;;;5076393;28;20468;-59
2022/05/06 12:34:34;;;;;;;11.33;10.20;;;22.50;99.90;;;;;;5074303;28;20511;-60
2022/05/06 12:37:11;;;;;;;17.90;16.40;;;22.40;99.90;;;;;;5078921;28;20469;-59
2022/05/06 12:39:48;;;;;;;19.77;17.40;;;23.20;99.90;;;;;;5077659;28;20492;-59
2022/05/06 12:42:20;;;;;;;18.10;16.20;;;22.60;99.90;;;;;;5077805;28;20766;-60
2022/05/06 12:44:47;;;;;;;18.93;17.30;;;22.00;99.90;;;;;;5076197;28;20487;-60
2022/05/06 12:50:00;;;;;;;18.63;16.83;;;23.50;99.90;;;;;;5075839;28;20486;-60
2022/05/06 12:52:31;;;;;;;19.00;17.33;;;23.80;99.90;;;;;;5077729;28;20462;-60
2022/05/06 12:55:00;;;;;;;17.73;16.13;;;24.10;99.90;;;;;;5077904;28;20458;-60
2022/05/06 12:57:26;;;;;;;19.90;18.30;;;24.20;99.90;;;;;;5074483;28;20527;-60
2022/05/06 13:00:00;;;;;;;20.37;18.40;;;23.20;99.90;;;;;;5076484;28;20453;-60
2022/05/06 13:02:27;;;;;;;21.80;20.10;;;23.40;99.90;;;;;;5077786;28;20816;-59
2022/05/06 13:04:56;;;;;;;19.53;16.40;;;23.20;99.90;;;;;;5077913;28;20803;-59
2022/05/06 13:07:26;;;;;;;18.77;17.10;;;23.00;99.90;;;;;;5078137;28;20462;-60
2022/05/06 13:09:55;;;;;;;19.57;17.70;;;23.30;99.90;;;;;;5077849;28;20489;-60
2022/05/06 13:12:24;;;;;;;18.03;16.43;;;23.40;99.90;;;;;;5078009;28;20495;-60
2022/05/06 13:15:07;;;;;;;19.07;17.50;;;24.10;99.90;;;;;;5076465;28;20824;-60
2022/05/06 13:17:37;;;;;;;16.57;15.07;;;24.00;99.90;;;;;;5078280;28;20499;-60
2022/05/06 13:20:06;;;;;;;14.43;13.10;;;25.20;99.90;;;;;;5077869;28;20962;-60
2022/05/06 13:22:32;;;;;;;16.00;14.70;;;25.80;99.90;;;;;;5058156;28;20759;-60
2022/05/06 13:25:02;;;;;;;15.40;14.20;;;25.70;99.90;;;;;;5063562;28;20519;-60
2022/05/06 13:27:30;;;;;;;13.73;12.53;;;25.50;99.90;;;;;;5077315;28;20803;-60
2022/05/06 13:30:00;;;;;;;13.40;12.30;;;24.50;99.90;;;;;;5077535;28;20994;-59
2022/05/06 13:32:29;;;;;;;11.60;10.70;;;24.80;99.90;;;;;;5076262;28;20469;-60
2022/05/06 13:34:56;;;;;;;12.47;11.47;;;25.50;99.90;;;;;;5075414;28;20544;-60
2022/05/06 13:37:28;;;;;;;16.37;14.87;;;25.30;99.90;;;;;;5072852;28;20462;-60
2022/05/06 13:39:55;;;;;;;15.90;14.40;;;24.50;99.90;;;;;;5074359;28;20477;-60
2022/05/06 13:42:27;;;;;;;16.57;15.27;;;24.10;99.90;;;;;;5076234;28;20457;-59
2022/05/06 13:44:59;;;;;;;19.00;17.30;;;24.40;99.90;;;;;;5076795;28;20559;-59
2022/05/06 13:47:28;;;;;;;16.87;15.57;;;23.40;99.90;;;;;;5076678;28;20472;-59
2022/05/06 13:49:58;;;;;;;15.73;14.53;;;22.40;99.90;;;;;;5076059;28;20533;-59
2022/05/06 13:52:26;;;;;;;18.57;16.60;;;21.60;99.90;;;;;;5075715;28;20507;-59